createdAt,value
2023-05-14T00:01:55.690Z,9.07
2023-05-14T00:04:23.822Z,9.09
2023-05-14T00:06:51.525Z,9.04
2023-05-14T00:09:19.257Z,9.04
2023-05-14T00:11:46.638Z,9.06
2023-05-14T00:14:14.541Z,9.02
2023-05-14T00:16:46.343Z,8.92
2023-05-14T00:19:13.912Z,8.92
2023-05-14T00:21:41.468Z,8.88
2023-05-14T00:24:10.070Z,8.64
2023-05-14T00:30:25.385Z,8.75
2023-05-14T00:32:56.912Z,8.81
2023-05-14T00:35:24.514Z,8.81
2023-05-14T00:38:01.163Z,8.74
2023-05-14T00:40:42.379Z,8.76
2023-05-14T00:43:09.785Z,8.71
2023-05-14T00:45:40.138Z,8.59
2023-05-14T00:48:10.220Z,8.56
2023-05-14T00:50:37.817Z,8.61
2023-05-14T00:53:10.489Z,8.51
2023-05-14T00:55:42.383Z,8.55
2023-05-14T00:58:14.720Z,8.55
2023-05-14T01:00:42.679Z,8.49
2023-05-14T01:03:10.438Z,8.46
2023-05-14T01:06:00.256Z,8.67
2023-05-14T01:08:59.867Z,8.54
2023-05-14T01:11:37.013Z,8.59
2023-05-14T01:14:17.196Z,8.63
2023-05-14T01:16:51.221Z,8.68
2023-05-14T01:19:45.585Z,8.63
2023-05-14T01:22:13.546Z,8.63
2023-05-14T01:24:41.282Z,8.65
2023-05-14T01:27:19.173Z,8.53
2023-05-14T01:29:57.860Z,8.75
2023-05-14T01:32:27.006Z,8.67
2023-05-14T01:34:59.817Z,8.63
2023-05-14T01:37:31.069Z,8.75
2023-05-14T01:40:01.744Z,8.62
2023-05-14T01:42:31.737Z,8.66
2023-05-14T01:45:07.104Z,8.67
2023-05-14T01:47:37.496Z,8.63
2023-05-14T01:50:49.948Z,8.77
2023-05-14T01:53:17.262Z,8.77
2023-05-14T01:55:48.492Z,8.72
2023-05-14T01:58:18.400Z,8.52
2023-05-14T02:00:50.724Z,8.78
2023-05-14T02:03:20.368Z,8.81
2023-05-14T02:05:47.788Z,8.63
2023-05-14T02:08:15.046Z,8.84
2023-05-14T02:10:42.307Z,8.78
2023-05-14T02:13:12.114Z,8.76
2023-05-14T02:15:39.893Z,8.79
2023-05-14T02:18:07.766Z,8.95
2023-05-14T02:20:35.185Z,8.90
2023-05-14T02:23:02.663Z,8.80
2023-05-14T02:25:32.484Z,8.91
2023-05-14T02:27:59.717Z,9.05
2023-05-14T02:30:27.025Z,9.11
2023-05-14T02:33:05.193Z,9.15
2023-05-14T02:35:33.348Z,9.04
2023-05-14T02:38:03.092Z,9.05
2023-05-14T02:40:30.550Z,9.13
2023-05-14T02:43:04.791Z,9.20
2023-05-14T02:48:56.247Z,9.36
2023-05-14T02:51:23.786Z,9.28
2023-05-14T02:53:51.111Z,9.33
2023-05-14T02:56:18.598Z,9.44
2023-05-14T02:58:48.511Z,9.39
2023-05-14T03:01:19.058Z,9.39
2023-05-14T03:03:46.935Z,9.37
2023-05-14T03:06:14.688Z,9.51
2023-05-14T03:08:44.310Z,9.69
2023-05-14T03:11:26.403Z,9.80
2023-05-14T03:13:56.347Z,9.73
2023-05-14T03:16:23.560Z,9.81
2023-05-14T03:18:51.086Z,9.78
2023-05-14T03:21:20.943Z,9.73
2023-05-14T03:23:48.429Z,10.00
2023-05-14T03:26:15.970Z,9.95
2023-05-14T03:28:46.215Z,10.01
2023-05-14T03:31:16.426Z,10.05
2023-05-14T03:33:47.300Z,10.30
2023-05-14T03:36:17.199Z,10.41
2023-05-14T03:38:45.849Z,10.65
2023-05-14T03:41:28.811Z,10.94
2023-05-14T03:44:07.583Z,11.11
2023-05-14T03:50:04.774Z,11.61
2023-05-14T03:52:32.550Z,11.59
2023-05-14T03:55:01.061Z,11.73
2023-05-14T03:57:28.905Z,11.77
2023-05-14T03:59:56.169Z,11.77
2023-05-14T04:02:23.706Z,11.67
2023-05-14T04:04:59.878Z,11.43
2023-05-14T04:07:30.518Z,11.36
2023-05-14T04:10:04.304Z,11.18
2023-05-14T04:12:35.139Z,11.33
2023-05-14T04:15:02.686Z,11.15
2023-05-14T04:17:36.475Z,11.27
2023-05-14T04:20:04.677Z,11.50
2023-05-14T04:22:34.843Z,11.46
2023-05-14T04:25:02.366Z,11.53
2023-05-14T04:27:32.081Z,11.43
2023-05-14T04:30:22.375Z,11.34
2023-05-14T04:32:50.175Z,11.46
2023-05-14T04:35:17.879Z,11.56
2023-05-14T04:37:45.540Z,11.52
2023-05-14T04:40:17.348Z,11.63
2023-05-14T04:42:45.564Z,11.85
2023-05-14T04:45:15.403Z,11.87
2023-05-14T04:47:46.571Z,11.93
2023-05-14T04:50:14.579Z,12.24
2023-05-14T04:52:46.761Z,12.41
2023-05-14T04:55:14.381Z,12.63
2023-05-14T04:57:45.816Z,12.83
2023-05-14T05:03:03.786Z,12.97
2023-05-14T05:05:31.527Z,13.34
2023-05-14T05:08:22.733Z,13.58
2023-05-14T05:10:53.869Z,13.71
2023-05-14T05:16:48.189Z,13.89
2023-05-14T05:19:15.865Z,13.94
2023-05-14T05:21:43.620Z,13.76
2023-05-14T05:24:15.175Z,13.76
2023-05-14T05:26:45.190Z,14.12
2023-05-14T05:29:16.689Z,14.25
2023-05-14T05:31:47.727Z,14.52
2023-05-14T05:34:15.229Z,14.77
2023-05-14T05:36:52.779Z,15.10
2023-05-14T05:39:20.382Z,15.09
2023-05-14T05:41:47.615Z,15.06
2023-05-14T05:44:15.248Z,15.09
2023-05-14T05:46:46.249Z,15.18
2023-05-14T05:49:14.027Z,15.28
2023-05-14T05:51:43.655Z,15.39
2023-05-14T05:54:11.373Z,15.31
2023-05-14T05:56:41.183Z,15.18
2023-05-14T05:59:08.651Z,15.59
2023-05-14T06:01:46.694Z,15.67
2023-05-14T06:04:21.435Z,16.02
2023-05-14T06:06:48.916Z,15.79
2023-05-14T06:09:19.425Z,15.53
2023-05-14T06:11:47.086Z,15.70
2023-05-14T06:14:19.097Z,15.61
2023-05-14T06:16:50.308Z,15.62
2023-05-14T06:19:19.465Z,15.62
2023-05-14T06:22:00.215Z,15.90
2023-05-14T06:24:30.277Z,16.49
2023-05-14T06:27:02.130Z,17.03
2023-05-14T06:29:29.937Z,17.35
2023-05-14T06:32:05.271Z,17.45
2023-05-14T06:35:33.507Z,17.72
2023-05-14T06:38:03.790Z,17.76
2023-05-14T06:40:31.601Z,17.80
2023-05-14T06:42:59.256Z,17.75
2023-05-14T06:45:26.855Z,17.79
2023-05-14T06:47:56.936Z,18.04
2023-05-14T06:50:27.191Z,18.13
2023-05-14T06:52:57.624Z,18.34
2023-05-14T07:02:59.142Z,17.90
2023-05-14T07:05:31.179Z,17.92
2023-05-14T07:08:01.901Z,18.03
2023-05-14T07:10:54.641Z,18.32
2023-05-14T07:13:42.208Z,19.05
2023-05-14T07:16:12.290Z,19.23
2023-05-14T07:18:39.896Z,19.20
2023-05-14T07:21:12.328Z,19.55
2023-05-14T07:23:42.459Z,19.45
2023-05-14T07:26:10.216Z,19.63
2023-05-14T07:28:37.875Z,19.91
2023-05-14T07:31:10.408Z,20.06
2023-05-14T07:33:38.687Z,20.07
2023-05-14T07:36:06.522Z,19.94
2023-05-14T07:38:34.178Z,19.79
2023-05-14T07:41:05.334Z,20.25
2023-05-14T07:43:33.184Z,20.44
2023-05-14T07:46:32.835Z,21.10
2023-05-14T07:49:00.785Z,21.15
2023-05-14T07:51:29.005Z,21.44
2023-05-14T07:53:57.255Z,21.23
2023-05-14T07:57:00.800Z,21.42
2023-05-14T07:59:28.292Z,21.60
2023-05-14T08:01:55.644Z,21.89
2023-05-14T08:04:29.104Z,21.98
2023-05-14T08:07:00.878Z,21.60
2023-05-14T08:09:28.626Z,21.50
2023-05-14T08:12:08.001Z,21.26
2023-05-14T08:14:35.892Z,21.05
2023-05-14T08:17:50.421Z,20.75
2023-05-14T08:20:18.133Z,20.06
2023-05-14T08:22:45.927Z,19.65
2023-05-14T08:25:15.034Z,19.75
2023-05-14T08:27:45.188Z,19.15
2023-05-14T08:30:14.248Z,18.84
2023-05-14T08:32:44.764Z,18.67
2023-05-14T08:35:12.743Z,18.49
2023-05-14T08:37:40.443Z,18.31
2023-05-14T08:40:10.763Z,18.19
2023-05-14T08:42:42.311Z,17.89
2023-05-14T08:45:52.149Z,17.78
2023-05-14T08:48:23.509Z,17.73
2023-05-14T08:54:46.094Z,18.11
2023-05-14T08:57:17.337Z,17.98
2023-05-14T08:59:51.912Z,18.08
2023-05-14T09:02:24.047Z,18.27
2023-05-14T09:05:05.574Z,18.46
2023-05-14T09:07:33.816Z,18.43
2023-05-14T09:10:07.894Z,18.48
2023-05-14T09:12:41.228Z,18.30
2023-05-14T09:15:09.313Z,18.31
2023-05-14T09:17:50.649Z,18.38
2023-05-14T09:23:58.746Z,18.98
2023-05-14T09:29:58.114Z,18.85
2023-05-14T09:32:36.370Z,19.14
2023-05-14T09:38:37.429Z,18.75
2023-05-14T09:44:49.804Z,19.67
2023-05-14T09:47:19.034Z,20.81
2023-05-14T09:49:59.452Z,21.58
2023-05-14T09:52:51.388Z,22.29
2023-05-14T09:55:46.399Z,22.82
2023-05-14T10:01:19.603Z,22.77
2023-05-14T10:03:54.237Z,23.15
2023-05-14T10:06:33.045Z,23.52
2023-05-14T10:09:09.110Z,23.49
2023-05-14T10:11:49.940Z,23.75
2023-05-14T10:17:47.591Z,23.93
2023-05-14T10:20:28.294Z,23.55
2023-05-14T10:23:07.775Z,23.50
2023-05-14T10:25:45.429Z,23.82
2023-05-14T10:28:22.285Z,24.25
2023-05-14T10:31:28.034Z,25.70
2023-05-14T10:34:00.070Z,28.02
2023-05-14T10:36:30.220Z,29.86
2023-05-14T10:39:06.251Z,30.60
2023-05-14T10:41:34.799Z,30.78
2023-05-14T10:44:12.388Z,30.03
2023-05-14T10:46:49.875Z,29.30
2023-05-14T10:49:42.408Z,29.72
2023-05-14T10:52:16.542Z,30.27
2023-05-14T10:54:52.575Z,30.50
2023-05-14T10:57:23.384Z,31.77
2023-05-14T11:03:19.433Z,28.39
2023-05-14T11:05:47.541Z,26.77
2023-05-14T11:08:26.507Z,25.53
2023-05-14T11:14:10.177Z,22.83
2023-05-14T11:16:38.731Z,21.63
2023-05-14T11:19:22.385Z,20.53
2023-05-14T11:36:04.595Z,18.97
2023-05-14T11:38:34.543Z,19.21
2023-05-14T11:58:34.994Z,18.08
2023-05-14T12:06:36.801Z,15.84
2023-05-14T12:09:23.293Z,16.04
2023-05-14T12:16:15.306Z,15.75
2023-05-14T12:19:07.421Z,17.20
2023-05-14T12:26:13.145Z,18.93
2023-05-14T12:36:21.775Z,23.20
2023-05-14T12:40:04.718Z,24.69
2023-05-14T12:42:55.471Z,26.22
2023-05-14T12:45:42.216Z,26.90
2023-05-14T12:49:23.016Z,26.85
2023-05-14T12:55:22.678Z,23.40
2023-05-14T12:58:09.431Z,22.62
2023-05-14T13:12:31.610Z,20.08
2023-05-14T13:18:31.416Z,21.00
2023-05-14T13:21:08.486Z,22.38
2023-05-14T13:23:54.190Z,22.88
2023-05-14T13:29:24.142Z,21.38
2023-05-14T13:32:01.666Z,20.46
2023-05-14T13:34:48.968Z,19.77
2023-05-14T13:44:49.886Z,19.02
2023-05-14T13:47:21.973Z,18.79
2023-05-14T13:49:49.897Z,18.57
2023-05-14T13:52:18.884Z,18.67
2023-05-14T13:54:49.965Z,18.51
2023-05-14T13:57:27.474Z,18.69
2023-05-14T14:00:14.594Z,18.69
2023-05-14T14:03:05.438Z,18.59
2023-05-14T14:05:45.926Z,18.15
2023-05-14T14:08:23.227Z,17.97
2023-05-14T14:10:55.781Z,17.79
2023-05-14T14:13:26.569Z,17.76
2023-05-14T14:16:18.866Z,17.76
2023-05-14T14:18:47.007Z,17.44
2023-05-14T14:21:21.479Z,17.05
2023-05-14T14:23:49.610Z,16.89
2023-05-14T14:26:21.250Z,16.75
2023-05-14T14:28:52.934Z,16.36
2023-05-14T14:31:24.965Z,15.98
2023-05-14T14:33:58.831Z,15.42
2023-05-14T14:36:26.292Z,15.42
2023-05-14T14:39:16.533Z,15.31
2023-05-14T14:41:47.997Z,15.25
2023-05-14T14:44:24.342Z,15.00
2023-05-14T14:46:58.162Z,14.95
2023-05-14T14:49:28.978Z,14.89
2023-05-14T14:52:00.550Z,14.77
2023-05-14T14:54:41.420Z,14.96
2023-05-14T14:57:12.910Z,15.23
2023-05-14T15:03:24.582Z,15.28
2023-05-14T15:19:53.696Z,15.08
2023-05-14T15:22:24.694Z,14.82
2023-05-14T15:24:52.598Z,15.08
2023-05-14T15:27:20.655Z,15.22
2023-05-14T15:30:26.505Z,15.47
2023-05-14T15:33:28.174Z,15.58
2023-05-14T15:36:17.243Z,15.52
2023-05-14T15:38:46.459Z,15.28
2023-05-14T15:44:53.628Z,15.21
2023-05-14T15:47:21.812Z,14.88
2023-05-14T15:50:48.300Z,14.86
2023-05-14T15:53:20.034Z,14.52
2023-05-14T15:56:30.280Z,14.85
2023-05-14T16:05:29.500Z,14.52
2023-05-14T16:08:05.091Z,14.47
2023-05-14T16:10:32.690Z,14.68
2023-05-14T16:13:00.567Z,14.55
2023-05-14T16:15:32.268Z,14.56
2023-05-14T16:18:11.285Z,14.58
2023-05-14T16:20:39.089Z,14.60
2023-05-14T16:23:07.020Z,14.72
2023-05-14T16:30:00.190Z,14.87
2023-05-14T16:32:37.550Z,14.93
2023-05-14T16:35:14.463Z,15.10
2023-05-14T16:37:52.000Z,15.10
2023-05-14T16:40:22.386Z,15.23
2023-05-14T16:42:52.552Z,15.02
2023-05-14T16:45:25.325Z,14.94
2023-05-14T16:48:02.444Z,14.90
2023-05-14T16:50:39.756Z,14.68
2023-05-14T16:53:08.615Z,14.59
2023-05-14T16:55:46.298Z,14.49
2023-05-14T16:58:13.924Z,14.47
2023-05-14T17:00:41.564Z,14.39
2023-05-14T17:03:11.870Z,14.26
2023-05-14T17:05:45.424Z,14.19
2023-05-14T17:08:24.856Z,14.26
2023-05-14T17:10:57.162Z,14.12
2023-05-14T17:13:25.307Z,14.03
2023-05-14T17:15:56.288Z,13.92
2023-05-14T17:18:43.676Z,14.00
2023-05-14T17:21:31.510Z,13.93
2023-05-14T17:24:50.453Z,13.82
2023-05-14T17:27:21.666Z,13.69
2023-05-14T17:29:56.786Z,13.38
2023-05-14T17:32:24.917Z,13.44
2023-05-14T17:35:05.104Z,13.36
2023-05-14T17:37:34.370Z,13.13
2023-05-14T17:40:01.754Z,13.18
2023-05-14T17:42:29.622Z,13.20
2023-05-14T17:44:57.255Z,13.10
2023-05-14T17:47:25.181Z,12.94
2023-05-14T17:49:53.400Z,13.08
2023-05-14T17:52:50.789Z,12.79
2023-05-14T17:58:47.842Z,12.73
2023-05-14T18:01:27.067Z,12.67
2023-05-14T18:05:31.661Z,12.22
2023-05-14T18:08:06.994Z,12.40
2023-05-14T18:11:23.038Z,12.32
2023-05-14T18:13:55.772Z,12.10
2023-05-14T18:17:16.747Z,12.11
2023-05-14T18:23:12.079Z,11.76
2023-05-14T18:25:44.340Z,11.72
2023-05-14T18:28:12.370Z,11.67
2023-05-14T18:30:42.442Z,11.60
2023-05-14T18:33:15.675Z,11.60
2023-05-14T18:36:00.079Z,11.66
2023-05-14T18:38:30.502Z,11.50
2023-05-14T18:41:00.555Z,11.46
2023-05-14T18:43:30.532Z,11.43
2023-05-14T18:46:01.214Z,11.32
2023-05-14T18:48:31.507Z,11.32
2023-05-14T18:50:59.473Z,11.18
2023-05-14T18:53:27.579Z,11.31
2023-05-14T18:55:57.668Z,11.13
2023-05-14T18:58:27.287Z,11.16
2023-05-14T19:01:00.675Z,10.95
2023-05-14T19:03:30.275Z,10.92
2023-05-14T19:06:04.888Z,11.00
2023-05-14T19:08:33.125Z,10.83
2023-05-14T19:11:09.583Z,10.76
2023-05-14T19:13:37.339Z,10.88
2023-05-14T19:16:16.837Z,10.78
2023-05-14T19:21:31.274Z,10.68
2023-05-14T19:23:58.691Z,10.66
2023-05-14T19:26:26.189Z,10.79
2023-05-14T19:28:58.732Z,10.63
2023-05-14T19:31:31.467Z,10.54
2023-05-14T19:37:01.245Z,10.65
2023-05-14T19:43:12.661Z,10.28
2023-05-14T19:49:27.647Z,10.20
2023-05-14T19:55:20.518Z,10.32
2023-05-14T19:58:02.217Z,10.29
2023-05-14T20:03:30.223Z,10.07
2023-05-14T20:14:10.128Z,10.22
2023-05-14T20:16:53.572Z,9.91
2023-05-14T20:19:34.196Z,9.93
2023-05-14T20:22:10.677Z,9.81
2023-05-14T20:25:28.765Z,10.04
2023-05-14T20:27:56.575Z,9.81
2023-05-14T20:30:29.250Z,9.71
2023-05-14T20:32:57.466Z,9.71
2023-05-14T20:35:25.453Z,9.92
2023-05-14T20:38:00.845Z,9.93
2023-05-14T20:40:50.724Z,9.58
2023-05-14T20:43:30.157Z,9.61
2023-05-14T20:46:01.594Z,9.64
2023-05-14T20:48:34.365Z,9.50
2023-05-14T20:54:30.475Z,9.49
2023-05-14T20:57:00.496Z,9.60
2023-05-14T20:59:47.120Z,9.44
2023-05-14T21:02:20.441Z,9.69
2023-05-14T21:05:14.174Z,9.56
2023-05-14T21:11:04.986Z,9.46
2023-05-14T21:13:32.454Z,9.54
2023-05-14T21:16:02.493Z,9.54
2023-05-14T21:18:32.964Z,9.60
2023-05-14T21:21:00.858Z,9.57
2023-05-14T21:23:29.408Z,9.41
2023-05-14T21:25:57.231Z,9.44
2023-05-14T21:28:26.938Z,9.56
2023-05-14T21:30:56.627Z,9.39
2023-05-14T21:33:24.419Z,9.44
2023-05-14T21:35:52.207Z,9.44
2023-05-14T21:38:20.109Z,9.34
2023-05-14T21:40:47.684Z,9.25
2023-05-14T21:43:15.724Z,9.30
2023-05-14T21:45:45.552Z,9.36
2023-05-14T21:48:13.484Z,9.17
2023-05-14T21:50:41.103Z,9.30
2023-05-14T21:53:08.519Z,9.16
2023-05-14T21:55:38.504Z,9.25
2023-05-14T21:58:11.158Z,9.22
2023-05-14T22:00:45.316Z,9.18
2023-05-14T22:03:16.121Z,9.18
2023-05-14T22:05:45.944Z,9.16
2023-05-14T22:08:17.646Z,9.11
2023-05-14T22:10:46.904Z,9.08
2023-05-14T22:13:21.501Z,9.21
2023-05-14T22:19:33.345Z,9.25
2023-05-14T22:22:00.910Z,9.11
2023-05-14T22:24:28.149Z,8.91
2023-05-14T22:26:58.536Z,9.00
2023-05-14T22:29:26.433Z,9.07
2023-05-14T22:31:53.898Z,9.07
2023-05-14T22:34:26.095Z,9.02
2023-05-14T22:36:53.635Z,9.02
2023-05-14T22:39:27.412Z,8.86
2023-05-14T22:42:05.768Z,8.83
2023-05-14T22:44:38.292Z,8.82
2023-05-14T22:47:12.110Z,8.79
2023-05-14T22:52:45.962Z,8.80
2023-05-14T22:55:15.950Z,8.64
2023-05-14T22:57:49.957Z,8.75
2023-05-14T23:00:37.641Z,8.75
2023-05-14T23:03:14.024Z,8.70
2023-05-14T23:05:41.722Z,8.57
2023-05-14T23:08:19.260Z,8.52
2023-05-14T23:11:01.969Z,8.51
2023-05-14T23:13:29.371Z,8.59
2023-05-14T23:19:52.636Z,8.72
2023-05-14T23:22:25.201Z,8.51
2023-05-14T23:25:16.903Z,8.45
2023-05-14T23:27:47.927Z,8.38
2023-05-14T23:30:20.328Z,8.59
2023-05-14T23:32:55.301Z,8.42
2023-05-14T23:35:23.225Z,8.32
2023-05-14T23:37:57.845Z,8.46
2023-05-14T23:40:25.515Z,8.52
2023-05-14T23:43:33.109Z,8.42
2023-05-14T23:46:19.204Z,8.29
2023-05-14T23:49:08.627Z,8.40
2023-05-14T23:52:01.411Z,8.26
2023-05-14T23:57:34.049Z,8.46
